createdAt,value
2023-04-21T00:00:24.165Z,7.39
2023-04-21T00:01:24.071Z,7.44
2023-04-21T00:02:24.109Z,7.31
2023-04-21T00:03:24.234Z,7.34
2023-04-21T00:04:24.143Z,7.38
2023-04-21T00:05:23.777Z,7.29
2023-04-21T00:06:23.653Z,7.26
2023-04-21T00:07:23.591Z,7.21
2023-04-21T00:08:23.497Z,7.21
2023-04-21T00:09:23.409Z,7.17
2023-04-21T00:10:23.318Z,7.20
2023-04-21T00:11:23.238Z,7.20
2023-04-21T00:12:23.149Z,7.20
2023-04-21T00:13:23.085Z,7.08
2023-04-21T00:14:22.987Z,7.09
2023-04-21T00:15:22.900Z,7.08
2023-04-21T00:16:22.867Z,6.98
2023-04-21T00:17:24.189Z,6.96
2023-04-21T00:18:22.650Z,6.88
2023-04-21T00:20:22.502Z,6.81
2023-04-21T00:21:22.401Z,6.84
2023-04-21T00:22:22.313Z,6.86
2023-04-21T00:23:22.230Z,6.78
2023-04-21T00:24:22.154Z,6.73
2023-04-21T00:25:22.059Z,6.69
2023-04-21T00:26:21.979Z,6.65
2023-04-21T00:27:21.894Z,6.59
2023-04-21T00:28:21.808Z,6.59
2023-04-21T00:29:21.932Z,6.54
2023-04-21T00:30:21.638Z,6.54
2023-04-21T00:31:21.588Z,6.55
2023-04-21T00:32:21.491Z,6.62
2023-04-21T00:33:21.419Z,6.54
2023-04-21T00:34:21.299Z,6.68
2023-04-21T00:35:21.230Z,6.55
2023-04-21T00:36:21.170Z,6.54
2023-04-21T00:37:21.056Z,6.68
2023-04-21T00:38:20.981Z,6.54
2023-04-21T00:39:20.995Z,6.57
2023-04-21T00:40:21.398Z,6.54
2023-04-21T00:41:20.720Z,6.52
2023-04-21T00:42:20.635Z,6.51
2023-04-21T00:43:20.562Z,6.42
2023-04-21T00:44:20.460Z,6.37
2023-04-21T00:45:20.382Z,6.15
2023-04-21T00:46:20.324Z,6.15
2023-04-21T00:47:20.459Z,6.27
2023-04-21T00:48:20.176Z,6.13
2023-04-21T00:49:20.259Z,6.24
2023-04-21T00:50:19.961Z,6.08
2023-04-21T00:51:19.876Z,6.14
2023-04-21T00:52:19.819Z,6.04
2023-04-21T00:53:19.704Z,6.06
2023-04-21T00:54:19.619Z,6.13
2023-04-21T00:55:19.796Z,6.14
2023-04-21T00:56:19.457Z,6.06
2023-04-21T00:57:19.619Z,6.08
2023-04-21T00:58:19.282Z,6.18
2023-04-21T00:59:19.418Z,6.15
2023-04-21T01:00:19.122Z,6.21
2023-04-21T01:01:19.077Z,6.06
2023-04-21T01:02:19.066Z,6.10
2023-04-21T01:03:19.009Z,6.03
2023-04-21T01:04:18.896Z,6.10
2023-04-21T01:05:18.694Z,6.08
2023-04-21T01:06:18.608Z,6.07
2023-04-21T01:07:18.525Z,6.13
2023-04-21T01:08:18.460Z,6.11
2023-04-21T01:09:18.699Z,6.08
2023-04-21T01:10:18.272Z,6.11
2023-04-21T01:11:18.187Z,6.26
2023-04-21T01:12:18.103Z,6.27
2023-04-21T01:13:18.021Z,6.34
2023-04-21T01:14:17.935Z,6.30
2023-04-21T01:15:17.850Z,6.22
2023-04-21T01:16:17.825Z,6.36
2023-04-21T01:17:17.681Z,6.41
2023-04-21T01:18:17.595Z,6.42
2023-04-21T01:19:18.106Z,6.50
2023-04-21T01:20:17.467Z,6.52
2023-04-21T01:21:17.347Z,6.54
2023-04-21T01:22:17.271Z,6.59
2023-04-21T01:23:17.175Z,6.52
2023-04-21T01:24:17.111Z,6.50
2023-04-21T01:25:17.006Z,6.39
2023-04-21T01:26:16.923Z,6.34
2023-04-21T01:27:16.839Z,6.36
2023-04-21T01:28:16.757Z,6.26
2023-04-21T01:29:16.956Z,6.30
2023-04-21T01:30:16.581Z,6.26
2023-04-21T01:31:16.509Z,6.29
2023-04-21T01:32:16.525Z,6.32
2023-04-21T01:33:16.346Z,6.24
2023-04-21T01:34:16.248Z,6.33
2023-04-21T01:35:16.164Z,6.30
2023-04-21T01:36:16.084Z,6.32
2023-04-21T01:37:16.007Z,6.32
2023-04-21T01:38:17.625Z,6.29
2023-04-21T01:39:15.940Z,6.18
2023-04-21T01:40:15.768Z,6.10
2023-04-21T01:41:15.660Z,6.07
2023-04-21T01:42:15.575Z,5.90
2023-04-21T01:43:15.749Z,5.88
2023-04-21T01:44:15.405Z,5.95
2023-04-21T01:45:15.323Z,5.89
2023-04-21T01:46:15.272Z,5.88
2023-04-21T01:47:15.153Z,5.93
2023-04-21T01:48:15.136Z,5.97
2023-04-21T01:49:14.982Z,6.06
2023-04-21T01:50:14.901Z,6.11
2023-04-21T01:51:14.814Z,6.10
2023-04-21T01:52:14.732Z,6.00
2023-04-21T01:53:14.649Z,5.97
2023-04-21T01:54:14.560Z,5.99
2023-04-21T01:55:14.477Z,5.93
2023-04-21T01:56:14.412Z,5.96
2023-04-21T01:57:14.342Z,5.89
2023-04-21T01:58:14.223Z,5.93
2023-04-21T01:59:14.139Z,5.92
2023-04-21T02:01:14.001Z,5.96
2023-04-21T02:03:14.012Z,5.95
2023-04-21T02:04:13.830Z,6.04
2023-04-21T02:05:13.638Z,6.03
2023-04-21T02:08:13.796Z,5.93
2023-04-21T02:09:13.501Z,5.89
2023-04-21T02:10:13.215Z,5.89
2023-04-21T02:12:13.059Z,5.92
2023-04-21T02:15:12.787Z,5.93
2023-04-21T02:16:14.207Z,5.89
2023-04-21T02:18:12.722Z,5.97
2023-04-21T02:19:12.457Z,5.93
2023-04-21T02:20:12.367Z,5.92
2023-04-21T02:21:12.278Z,5.97
2023-04-21T02:22:12.202Z,5.93
2023-04-21T02:23:12.109Z,5.90
2023-04-21T02:24:12.023Z,5.90
2023-04-21T02:25:11.963Z,5.96
2023-04-21T02:26:11.855Z,6.00
2023-04-21T02:27:11.798Z,5.97
2023-04-21T02:28:11.704Z,5.99
2023-04-21T02:29:11.605Z,5.95
2023-04-21T02:30:11.529Z,5.99
2023-04-21T02:31:11.488Z,5.96
2023-04-21T02:32:24.890Z,5.95
2023-04-21T02:33:11.608Z,5.89
2023-04-21T02:34:11.227Z,5.86
2023-04-21T02:35:11.098Z,5.90
2023-04-21T02:36:11.008Z,5.85
2023-04-21T02:37:10.924Z,5.83
2023-04-21T02:38:10.846Z,5.85
2023-04-21T02:39:10.802Z,5.88
2023-04-21T02:40:11.073Z,5.93
2023-04-21T02:41:10.588Z,5.95
2023-04-21T02:42:10.501Z,5.81
2023-04-21T02:43:10.420Z,5.83
2023-04-21T02:44:10.354Z,5.78
2023-04-21T02:45:10.248Z,5.81
2023-04-21T02:46:10.224Z,5.85
2023-04-21T02:47:10.082Z,5.83
2023-04-21T02:48:10.107Z,5.80
2023-04-21T02:49:09.915Z,5.83
2023-04-21T02:50:09.821Z,5.88
2023-04-21T02:51:09.739Z,5.86
2023-04-21T02:52:09.652Z,5.81
2023-04-21T02:53:09.570Z,5.78
2023-04-21T02:54:09.497Z,5.83
2023-04-21T02:55:09.400Z,5.78
2023-04-21T02:56:09.348Z,5.83
2023-04-21T02:57:09.237Z,5.80
2023-04-21T02:58:09.144Z,5.83
2023-04-21T02:59:09.057Z,5.77
2023-04-21T03:00:09.001Z,5.78
2023-04-21T03:01:08.980Z,5.74
2023-04-21T03:02:08.819Z,5.71
2023-04-21T03:03:08.824Z,5.71
2023-04-21T03:04:08.799Z,5.78
2023-04-21T03:05:08.563Z,5.72
2023-04-21T03:06:08.502Z,5.65
2023-04-21T03:07:08.387Z,5.60
2023-04-21T03:08:08.295Z,5.63
2023-04-21T03:09:08.216Z,5.59
2023-04-21T03:10:08.125Z,5.67
2023-04-21T03:11:08.045Z,5.63
2023-04-21T03:12:07.973Z,5.68
2023-04-21T03:13:07.881Z,5.54
2023-04-21T03:14:07.934Z,5.68
2023-04-21T03:15:07.702Z,5.67
2023-04-21T03:16:07.684Z,5.59
2023-04-21T03:17:07.536Z,5.52
2023-04-21T03:18:07.476Z,5.49
2023-04-21T03:19:07.682Z,5.38
2023-04-21T03:21:07.197Z,5.32
2023-04-21T03:22:07.109Z,5.26
2023-04-21T03:24:06.938Z,5.26
2023-04-21T03:25:06.875Z,5.16
2023-04-21T03:26:06.806Z,5.16
2023-04-21T03:28:06.602Z,4.99
2023-04-21T03:30:06.433Z,5.05
2023-04-21T03:32:06.714Z,5.17
2023-04-21T03:34:06.089Z,5.06
2023-04-21T03:35:06.004Z,5.14
2023-04-21T03:36:05.920Z,5.11
2023-04-21T03:37:05.835Z,5.05
2023-04-21T03:38:05.757Z,5.06
2023-04-21T03:39:18.827Z,5.05
2023-04-21T03:40:05.586Z,5.06
2023-04-21T03:41:05.492Z,5.06
2023-04-21T03:42:05.407Z,5.05
2023-04-21T03:43:05.331Z,5.00
2023-04-21T03:44:05.238Z,4.98
2023-04-21T03:45:05.163Z,5.00
2023-04-21T03:46:05.113Z,4.93
2023-04-21T03:47:04.982Z,4.93
2023-04-21T03:48:05.036Z,4.96
2023-04-21T03:49:05.008Z,4.84
2023-04-21T03:50:04.728Z,4.84
2023-04-21T03:51:04.645Z,4.77
2023-04-21T03:52:04.556Z,4.79
2023-04-21T03:53:04.469Z,4.79
2023-04-21T03:54:04.388Z,4.80
2023-04-21T03:55:04.294Z,4.91
2023-04-21T03:56:04.218Z,4.83
2023-04-21T03:57:04.128Z,4.96
2023-04-21T03:58:04.043Z,4.87
2023-04-21T03:59:03.960Z,4.87
2023-04-21T04:00:04.272Z,4.83
2023-04-21T04:01:03.784Z,4.76
2023-04-21T04:02:03.767Z,4.77
2023-04-21T04:03:03.754Z,4.87
2023-04-21T04:04:03.868Z,4.85
2023-04-21T04:05:03.523Z,4.79
2023-04-21T04:06:03.357Z,4.83
2023-04-21T04:07:03.569Z,4.84
2023-04-21T04:08:03.188Z,4.83
2023-04-21T04:09:03.124Z,4.87
2023-04-21T04:10:03.010Z,4.80
2023-04-21T04:11:02.936Z,4.87
2023-04-21T04:12:02.861Z,4.77
2023-04-21T04:13:02.763Z,4.84
2023-04-21T04:14:02.700Z,4.87
2023-04-21T04:15:02.589Z,4.79
2023-04-21T04:16:02.704Z,4.80
2023-04-21T04:17:02.418Z,4.91
2023-04-21T04:18:02.517Z,4.93
2023-04-21T04:19:02.250Z,4.93
2023-04-21T04:20:02.194Z,5.08
2023-04-21T04:21:02.071Z,4.93
2023-04-21T04:22:02.013Z,4.96
2023-04-21T04:23:01.904Z,4.96
2023-04-21T04:24:01.818Z,5.00
2023-04-21T04:25:01.744Z,4.98
2023-04-21T04:26:01.673Z,5.00
2023-04-21T04:27:01.558Z,4.98
2023-04-21T04:28:01.485Z,5.02
2023-04-21T04:29:01.385Z,5.03
2023-04-21T04:30:01.308Z,4.98
2023-04-21T04:31:01.262Z,5.10
2023-04-21T04:32:01.130Z,5.03
2023-04-21T04:33:01.067Z,5.16
2023-04-21T04:34:01.118Z,5.17
2023-04-21T04:35:00.877Z,5.23
2023-04-21T04:36:00.808Z,5.23
2023-04-21T04:37:00.851Z,5.21
2023-04-21T04:38:00.630Z,5.26
2023-04-21T04:39:00.530Z,5.24
2023-04-21T04:40:00.448Z,5.17
2023-04-21T04:41:00.362Z,5.17
2023-04-21T04:42:00.275Z,5.18
2023-04-21T04:43:00.200Z,5.18
2023-04-21T04:44:00.735Z,5.18
2023-04-21T04:45:00.025Z,5.26
2023-04-21T04:45:59.935Z,5.28
2023-04-21T04:46:59.950Z,5.28
2023-04-21T04:47:59.806Z,5.32
2023-04-21T04:48:59.676Z,5.38
2023-04-21T04:49:59.593Z,5.45
2023-04-21T04:50:59.503Z,5.34
2023-04-21T04:51:59.488Z,5.41
2023-04-21T04:52:59.336Z,5.36
2023-04-21T04:53:59.247Z,5.49
2023-04-21T04:54:59.160Z,5.62
2023-04-21T04:55:59.080Z,5.56
2023-04-21T04:56:58.994Z,5.67
2023-04-21T04:57:59.155Z,5.49
2023-04-21T04:58:58.820Z,5.44
2023-04-21T04:59:58.748Z,5.52
2023-04-21T05:00:58.650Z,5.53
2023-04-21T05:01:58.684Z,5.49
2023-04-21T05:02:58.623Z,5.52
2023-04-21T05:03:58.504Z,5.56
2023-04-21T05:04:58.449Z,5.53
2023-04-21T05:05:58.227Z,5.52
2023-04-21T05:06:58.144Z,5.54
2023-04-21T05:07:58.088Z,5.53
2023-04-21T05:08:57.999Z,5.53
2023-04-21T05:09:57.950Z,5.53
2023-04-21T05:10:57.801Z,5.54
2023-04-21T05:11:57.870Z,5.50
2023-04-21T05:12:57.631Z,5.63
2023-04-21T05:13:57.554Z,5.57
2023-04-21T05:14:57.812Z,5.65
2023-04-21T05:15:57.382Z,5.60
2023-04-21T05:16:57.384Z,5.71
2023-04-21T05:17:57.257Z,5.68
2023-04-21T05:18:57.121Z,5.71
2023-04-21T05:19:57.044Z,5.67
2023-04-21T05:20:56.953Z,5.75
2023-04-21T05:21:57.071Z,5.74
2023-04-21T05:22:56.786Z,5.71
2023-04-21T05:23:56.729Z,5.75
2023-04-21T05:24:56.616Z,5.83
2023-04-21T05:25:56.532Z,5.85
2023-04-21T05:26:56.451Z,5.93
2023-04-21T05:27:56.362Z,5.96
2023-04-21T05:28:56.279Z,5.99
2023-04-21T05:29:56.196Z,5.99
2023-04-21T05:30:56.104Z,5.96
2023-04-21T05:31:56.056Z,5.96
2023-04-21T05:32:56.058Z,6.03
2023-04-21T05:33:55.851Z,6.00
2023-04-21T05:34:55.776Z,6.04
2023-04-21T05:35:55.689Z,6.14
2023-04-21T05:36:55.598Z,6.07
2023-04-21T05:37:55.517Z,6.10
2023-04-21T05:38:55.435Z,6.17
2023-04-21T05:39:55.366Z,6.30
2023-04-21T05:40:55.262Z,6.30
2023-04-21T05:41:55.178Z,6.30
2023-04-21T05:42:55.093Z,6.32
2023-04-21T05:43:55.011Z,6.32
2023-04-21T05:44:54.927Z,6.34
2023-04-21T05:45:54.868Z,6.36
2023-04-21T05:46:54.758Z,6.51
2023-04-21T05:47:54.803Z,6.51
2023-04-21T05:48:54.592Z,6.63
2023-04-21T05:49:54.513Z,6.52
2023-04-21T05:50:54.424Z,6.63
2023-04-21T05:51:54.340Z,6.73
2023-04-21T05:52:54.256Z,6.76
2023-04-21T05:53:54.169Z,6.62
2023-04-21T05:54:54.083Z,6.70
2023-04-21T05:55:54.021Z,6.72
2023-04-21T05:56:53.915Z,6.75
2023-04-21T05:57:53.837Z,6.81
2023-04-21T05:58:53.750Z,6.88
2023-04-21T05:59:53.666Z,6.80
2023-04-21T06:00:53.579Z,6.88
2023-04-21T06:01:53.499Z,6.93
2023-04-21T06:02:53.579Z,6.96
2023-04-21T06:03:53.505Z,6.94
2023-04-21T06:04:53.479Z,6.98
2023-04-21T06:05:53.244Z,6.90
2023-04-21T06:06:53.079Z,6.93
2023-04-21T06:07:53.003Z,6.91
2023-04-21T06:08:52.909Z,6.91
2023-04-21T06:09:52.834Z,7.06
2023-04-21T06:10:52.747Z,6.99
2023-04-21T06:11:52.933Z,7.09
2023-04-21T06:12:52.577Z,7.16
2023-04-21T06:13:53.043Z,7.23
2023-04-21T06:14:52.413Z,7.31
2023-04-21T06:15:52.396Z,7.34
2023-04-21T06:16:52.243Z,7.38
2023-04-21T06:17:52.186Z,7.49
2023-04-21T06:18:52.082Z,7.52
2023-04-21T06:19:51.995Z,7.45
2023-04-21T06:20:51.920Z,7.55
2023-04-21T06:21:51.828Z,7.62
2023-04-21T06:22:51.748Z,7.72
2023-04-21T06:23:51.667Z,7.81
2023-04-21T06:24:51.582Z,7.73
2023-04-21T06:25:51.514Z,7.73
2023-04-21T06:26:51.419Z,7.72
2023-04-21T06:27:51.373Z,7.83
2023-04-21T06:28:51.259Z,7.68
2023-04-21T06:29:51.166Z,7.78
2023-04-21T06:30:51.084Z,7.78
2023-04-21T06:31:51.035Z,7.88
2023-04-21T06:32:50.941Z,8.09
2023-04-21T06:33:50.849Z,8.18
2023-04-21T06:34:50.773Z,8.14
2023-04-21T06:35:50.670Z,8.09
2023-04-21T06:36:50.590Z,8.03
2023-04-21T06:37:50.525Z,8.25
2023-04-21T06:38:50.418Z,8.19
2023-04-21T06:39:50.355Z,8.19
2023-04-21T06:40:50.262Z,8.30
2023-04-21T06:41:50.181Z,8.22
2023-04-21T06:42:50.090Z,8.21
2023-04-21T06:43:50.029Z,8.22
2023-04-21T06:44:50.934Z,8.30
2023-04-21T06:45:50.144Z,8.24
2023-04-21T06:46:49.834Z,8.17
2023-04-21T06:47:49.722Z,8.14
2023-04-21T06:48:49.604Z,8.22
2023-04-21T06:49:49.515Z,8.24
2023-04-21T06:50:49.437Z,8.22
2023-04-21T06:51:49.351Z,8.12
2023-04-21T06:52:49.269Z,8.06
2023-04-21T06:53:49.190Z,8.07
2023-04-21T06:54:49.104Z,8.01
2023-04-21T06:55:49.029Z,8.06
2023-04-21T06:56:48.937Z,8.09
2023-04-21T06:57:48.859Z,8.07
2023-04-21T06:58:48.774Z,7.86
2023-04-21T06:59:48.717Z,7.83
2023-04-21T07:00:48.631Z,8.00
2023-04-21T07:01:48.835Z,8.04
2023-04-21T07:02:48.527Z,8.04
2023-04-21T07:03:48.419Z,8.11
2023-04-21T07:04:48.340Z,8.24
2023-04-21T07:05:48.201Z,8.24
2023-04-21T07:06:48.118Z,8.36
2023-04-21T07:07:48.037Z,8.29
2023-04-21T07:08:47.956Z,8.36
2023-04-21T07:09:47.872Z,8.43
2023-04-21T07:10:47.800Z,8.48
2023-04-21T07:11:47.708Z,8.62
2023-04-21T07:12:47.626Z,8.58
2023-04-21T07:13:47.555Z,8.60
2023-04-21T07:14:47.470Z,8.66
2023-04-21T07:15:47.401Z,8.42
2023-04-21T07:16:47.386Z,8.50
2023-04-21T07:17:47.262Z,8.40
2023-04-21T07:18:47.136Z,8.44
2023-04-21T07:19:47.055Z,8.52
2023-04-21T07:20:46.979Z,8.58
2023-04-21T07:21:46.891Z,8.68
2023-04-21T07:22:46.843Z,8.65
2023-04-21T07:23:46.728Z,8.66
2023-04-21T07:24:48.589Z,8.76
2023-04-21T07:25:46.578Z,8.68
2023-04-21T07:26:46.487Z,8.65
2023-04-21T07:27:46.407Z,8.77
2023-04-21T07:28:46.320Z,8.70
2023-04-21T07:29:46.262Z,8.73
2023-04-21T07:30:46.220Z,8.62
2023-04-21T07:31:46.115Z,8.68
2023-04-21T07:32:46.051Z,8.77
2023-04-21T07:33:45.912Z,8.91
2023-04-21T07:34:45.831Z,8.95
2023-04-21T07:35:45.752Z,9.00
2023-04-21T07:36:45.662Z,8.90
2023-04-21T07:37:45.588Z,9.05
2023-04-21T07:38:45.505Z,9.00
2023-04-21T07:39:45.424Z,9.03
2023-04-21T07:40:45.337Z,9.05
2023-04-21T07:41:45.260Z,9.17
2023-04-21T07:42:45.194Z,9.31
2023-04-21T07:43:45.102Z,9.43
2023-04-21T07:44:45.021Z,9.50
2023-04-21T07:45:44.928Z,9.55
2023-04-21T07:46:44.879Z,9.68
2023-04-21T07:47:44.817Z,9.86
2023-04-21T07:48:44.684Z,9.89
2023-04-21T07:49:44.603Z,9.93
2023-04-21T07:50:44.576Z,10.06
2023-04-21T07:51:44.438Z,10.08
2023-04-21T07:52:44.357Z,10.19
2023-04-21T07:53:44.296Z,10.21
2023-04-21T07:54:44.198Z,10.23
2023-04-21T07:55:44.120Z,10.33
2023-04-21T07:56:44.082Z,10.18
2023-04-21T07:57:44.099Z,10.33
2023-04-21T07:58:43.875Z,10.44
2023-04-21T07:59:43.792Z,10.41
2023-04-21T08:00:43.726Z,10.53
2023-04-21T08:01:43.630Z,10.51
2023-04-21T08:02:43.608Z,10.56
2023-04-21T08:03:43.619Z,10.59
2023-04-21T08:04:43.467Z,10.59
2023-04-21T08:05:43.462Z,10.66
2023-04-21T08:06:43.310Z,10.66
2023-04-21T08:07:43.149Z,10.77
2023-04-21T08:08:43.076Z,10.67
2023-04-21T08:09:43.202Z,10.58
2023-04-21T08:10:42.907Z,10.62
2023-04-21T08:11:42.839Z,10.78
2023-04-21T08:12:42.774Z,10.73
2023-04-21T08:13:42.714Z,10.81
2023-04-21T08:14:42.640Z,10.88
2023-04-21T08:15:42.510Z,10.85
2023-04-21T08:16:42.522Z,10.96
2023-04-21T08:17:42.368Z,10.95
2023-04-21T08:18:42.372Z,11.00
2023-04-21T08:19:42.220Z,11.02
2023-04-21T08:20:42.106Z,10.83
2023-04-21T08:21:42.026Z,10.87
2023-04-21T08:22:42.001Z,10.66
2023-04-21T08:23:42.166Z,10.74
2023-04-21T08:24:41.824Z,10.58
2023-04-21T08:25:41.708Z,10.73
2023-04-21T08:26:41.830Z,10.66
2023-04-21T08:27:41.556Z,10.71
2023-04-21T08:28:41.474Z,10.66
2023-04-21T08:29:41.386Z,10.75
2023-04-21T08:30:41.412Z,10.84
2023-04-21T08:31:41.296Z,10.98
2023-04-21T08:32:41.197Z,11.02
2023-04-21T08:33:50.108Z,11.00
2023-04-21T08:34:41.010Z,10.95
2023-04-21T08:35:51.132Z,10.87
2023-04-21T08:36:40.826Z,10.95
2023-04-21T08:37:40.788Z,10.92
2023-04-21T08:38:40.677Z,10.95
2023-04-21T08:39:40.583Z,10.95
2023-04-21T08:40:40.502Z,11.05
2023-04-21T08:41:40.423Z,11.24
2023-04-21T08:42:40.347Z,10.99
2023-04-21T08:43:40.267Z,10.84
2023-04-21T08:44:40.586Z,10.93
2023-04-21T08:45:40.169Z,10.96
2023-04-21T08:46:40.060Z,11.02
2023-04-21T08:47:40.412Z,11.03
2023-04-21T08:48:39.876Z,11.14
2023-04-21T08:49:39.785Z,11.32
2023-04-21T08:50:39.706Z,11.32
2023-04-21T08:51:39.672Z,11.32
2023-04-21T08:52:39.545Z,11.17
2023-04-21T08:53:39.469Z,11.18
2023-04-21T08:54:39.394Z,11.34
2023-04-21T08:55:39.306Z,11.38
2023-04-21T08:56:39.229Z,11.51
2023-04-21T08:57:39.303Z,11.60
2023-04-21T08:58:39.084Z,11.71
2023-04-21T08:59:38.986Z,11.71
2023-04-21T09:00:38.907Z,11.75
2023-04-21T09:01:38.883Z,11.69
2023-04-21T09:02:38.928Z,11.71
2023-04-21T09:03:38.971Z,11.69
2023-04-21T09:04:38.970Z,11.72
2023-04-21T09:05:42.855Z,11.67
2023-04-21T09:06:38.473Z,11.79
2023-04-21T09:07:38.383Z,11.79
2023-04-21T09:08:38.276Z,11.81
2023-04-21T09:09:38.202Z,11.95
2023-04-21T09:10:38.126Z,12.08
2023-04-21T09:11:38.036Z,12.08
2023-04-21T09:12:37.957Z,12.24
2023-04-21T09:13:37.892Z,12.31
2023-04-21T09:14:37.798Z,12.37
2023-04-21T09:15:37.726Z,12.31
2023-04-21T09:16:40.297Z,12.28
2023-04-21T09:17:37.596Z,12.31
2023-04-21T09:35:13.398Z,12.84
2023-04-21T09:36:13.292Z,12.92
2023-04-21T09:37:13.573Z,13.04
2023-04-21T09:38:13.134Z,13.03
2023-04-21T09:39:34.391Z,13.09
2023-04-21T09:40:12.979Z,13.25
2023-04-21T09:41:12.910Z,13.21
2023-04-21T09:42:12.821Z,13.19
2023-04-21T09:43:12.739Z,13.15
2023-04-21T09:44:12.669Z,13.27
2023-04-21T09:46:12.542Z,13.40
2023-04-21T09:47:12.432Z,13.27
2023-04-21T09:48:12.354Z,13.24
2023-04-21T09:49:12.289Z,13.29
2023-04-21T09:50:12.724Z,13.27
2023-04-21T09:51:30.887Z,13.25
2023-04-21T09:52:18.445Z,13.27
2023-04-21T09:53:11.971Z,13.24
2023-04-21T09:54:25.987Z,13.09
2023-04-21T09:55:11.804Z,13.10
2023-04-21T09:56:11.728Z,13.17
2023-04-21T09:57:11.656Z,13.14
2023-04-21T09:58:11.581Z,13.24
2023-04-21T09:59:56.604Z,13.18
2023-04-21T10:00:53.905Z,13.15
2023-04-21T10:01:53.929Z,13.14
2023-04-21T10:02:53.856Z,13.00
2023-04-21T10:03:54.020Z,13.06
2023-04-21T10:04:53.888Z,13.11
2023-04-21T10:05:53.576Z,13.11
2023-04-21T10:06:53.455Z,13.02
2023-04-21T10:07:53.405Z,12.88
2023-04-21T10:08:53.285Z,12.79
2023-04-21T10:09:53.201Z,12.84
2023-04-21T10:10:53.121Z,12.88
2023-04-21T10:11:53.052Z,13.02
2023-04-21T10:12:52.970Z,12.94
2023-04-21T10:13:52.889Z,12.99
2023-04-21T10:14:52.810Z,13.11
2023-04-21T10:15:52.764Z,13.25
2023-04-21T10:16:53.003Z,13.27
2023-04-21T10:17:52.634Z,13.37
2023-04-21T10:18:52.497Z,13.29
2023-04-21T10:19:52.416Z,13.45
2023-04-21T10:20:52.345Z,13.63
2023-04-21T10:21:52.515Z,13.73
2023-04-21T10:22:52.316Z,13.84
2023-04-21T10:23:52.109Z,13.94
2023-04-21T10:24:52.032Z,13.87
2023-04-21T10:25:51.956Z,13.80
2023-04-21T10:26:54.672Z,13.86
2023-04-21T10:27:51.797Z,13.84
2023-04-21T10:28:51.720Z,13.83
2023-04-21T10:29:56.617Z,13.73
2023-04-21T10:30:51.568Z,13.71
2023-04-21T10:31:51.553Z,13.63
2023-04-21T10:32:51.440Z,13.58
2023-04-21T10:33:51.334Z,13.61
2023-04-21T10:34:51.256Z,13.71
2023-04-21T10:35:51.178Z,13.78
2023-04-21T10:36:51.103Z,13.71
2023-04-21T10:37:51.022Z,13.70
2023-04-21T10:38:50.968Z,13.71
2023-04-21T10:39:50.871Z,13.74
2023-04-21T10:40:51.043Z,13.70
2023-04-21T10:41:50.714Z,13.74
2023-04-21T10:42:50.635Z,13.78
2023-04-21T10:43:50.599Z,13.87
2023-04-21T10:44:50.481Z,13.89
2023-04-21T10:45:50.403Z,13.83
2023-04-21T10:46:50.356Z,13.98
2023-04-21T10:47:50.303Z,14.01
2023-04-21T10:48:50.258Z,14.19
2023-04-21T10:49:50.101Z,14.24
2023-04-21T10:50:50.274Z,14.29
2023-04-21T10:51:50.001Z,14.28
2023-04-21T10:52:49.862Z,14.21
2023-04-21T10:53:49.788Z,14.39
2023-04-21T10:54:49.770Z,14.32
2023-04-21T10:55:49.631Z,14.34
2023-04-21T10:56:49.574Z,14.56
2023-04-21T10:57:49.492Z,14.59
2023-04-21T10:58:49.406Z,14.69
2023-04-21T10:59:49.528Z,14.87
2023-04-21T11:00:49.279Z,15.03
2023-04-21T11:01:49.327Z,15.13
2023-04-21T11:02:52.042Z,15.12
2023-04-21T11:03:49.184Z,15.15
2023-04-21T11:04:49.507Z,14.87
2023-04-21T11:05:48.913Z,14.75
2023-04-21T11:06:48.799Z,14.74
2023-04-21T11:07:48.723Z,14.80
2023-04-21T11:08:48.634Z,14.87
2023-04-21T11:09:48.720Z,14.84
2023-04-21T11:10:48.503Z,14.78
2023-04-21T11:11:48.417Z,14.64
2023-04-21T11:12:48.330Z,14.59
2023-04-21T11:13:48.252Z,14.53
2023-04-21T11:14:48.309Z,14.36
2023-04-21T11:15:48.099Z,14.27
2023-04-21T11:16:48.039Z,14.13
2023-04-21T11:17:47.969Z,14.17
2023-04-21T11:18:47.897Z,14.17
2023-04-21T11:19:47.797Z,14.28
2023-04-21T11:20:47.714Z,14.31
2023-04-21T11:21:47.641Z,14.39
2023-04-21T11:22:47.560Z,14.59
2023-04-21T11:23:47.488Z,14.57
2023-04-21T11:24:47.409Z,14.41
2023-04-21T11:25:49.496Z,14.41
2023-04-21T11:26:47.278Z,14.41
2023-04-21T11:27:47.179Z,14.44
2023-04-21T11:28:47.107Z,14.42
2023-04-21T11:29:47.057Z,14.35
2023-04-21T11:30:47.000Z,14.31
2023-04-21T11:31:46.871Z,14.23
2023-04-21T11:32:46.842Z,14.21
2023-04-21T11:33:46.713Z,14.39
2023-04-21T11:34:46.641Z,14.46
2023-04-21T11:35:46.561Z,14.60
2023-04-21T11:36:47.297Z,14.69
2023-04-21T11:37:46.423Z,14.74
2023-04-21T11:38:46.333Z,14.60
2023-04-21T11:39:46.264Z,14.64
2023-04-21T11:40:46.180Z,14.67
2023-04-21T11:41:46.103Z,14.75
2023-04-21T11:42:46.047Z,14.80
2023-04-21T11:43:45.963Z,14.87
2023-04-21T11:44:45.880Z,14.72
2023-04-21T11:45:45.948Z,14.83
2023-04-21T11:46:45.776Z,14.88
2023-04-21T11:47:45.999Z,14.84
2023-04-21T11:48:45.637Z,14.71
2023-04-21T11:49:45.494Z,14.56
2023-04-21T11:50:45.421Z,14.60
2023-04-21T11:51:45.340Z,14.61
2023-04-21T11:52:45.268Z,14.79
2023-04-21T11:53:45.185Z,14.83
2023-04-21T11:54:45.126Z,14.83
2023-04-21T11:55:45.031Z,14.98
2023-04-21T11:56:44.954Z,14.97
2023-04-21T11:57:44.904Z,14.91
2023-04-21T11:58:44.962Z,15.08
2023-04-21T11:59:44.735Z,15.13
2023-04-21T12:00:44.652Z,15.26
2023-04-21T12:01:44.575Z,15.02
2023-04-21T12:02:44.739Z,15.01
2023-04-21T12:03:44.600Z,14.72
2023-04-21T12:04:44.453Z,14.74
2023-04-21T12:05:44.296Z,14.75
2023-04-21T12:06:44.215Z,14.75
2023-04-21T12:07:44.114Z,14.79
2023-04-21T12:08:44.035Z,14.90
2023-04-21T12:09:43.959Z,15.09
2023-04-21T12:10:43.882Z,15.27
2023-04-21T12:11:43.811Z,15.45
2023-04-21T12:12:43.727Z,15.70
2023-04-21T12:13:43.651Z,15.92
2023-04-21T12:14:43.746Z,15.85
2023-04-21T12:15:43.496Z,15.91
2023-04-21T12:16:43.528Z,16.07
2023-04-21T12:17:43.365Z,16.47
2023-04-21T12:18:43.273Z,16.34
2023-04-21T12:19:43.219Z,16.16
2023-04-21T12:20:43.122Z,15.88
2023-04-21T12:21:43.044Z,15.70
2023-04-21T12:22:42.964Z,15.57
2023-04-21T12:23:42.902Z,15.30
2023-04-21T12:24:42.821Z,15.31
2023-04-21T12:25:42.741Z,15.13
2023-04-21T12:26:42.668Z,15.20
2023-04-21T12:27:42.584Z,15.13
2023-04-21T12:28:42.515Z,15.27
2023-04-21T12:29:42.554Z,15.31
2023-04-21T12:30:42.841Z,15.39
2023-04-21T12:31:42.330Z,15.42
2023-04-21T12:32:42.263Z,15.57
2023-04-21T12:33:42.215Z,15.57
2023-04-21T12:34:42.608Z,15.60
2023-04-21T12:35:41.984Z,15.83
2023-04-21T12:36:41.906Z,15.97
2023-04-21T12:37:42.080Z,15.96
2023-04-21T12:38:41.755Z,16.12
2023-04-21T12:39:41.677Z,16.41
2023-04-21T12:40:41.601Z,17.21
2023-04-21T12:41:41.531Z,18.03
2023-04-21T12:42:41.453Z,18.97
2023-04-21T12:43:41.391Z,19.75
2023-04-21T12:44:41.312Z,20.06
2023-04-21T12:45:41.296Z,20.16
2023-04-21T12:47:23.879Z,20.26
2023-04-21T12:49:44.721Z,19.68
2023-04-21T12:50:31.210Z,19.23
2023-04-21T12:51:31.134Z,19.15
2023-04-21T12:52:31.119Z,19.21
2023-04-21T12:53:31.357Z,19.39
2023-04-21T12:55:18.419Z,19.17
2023-04-21T12:56:18.749Z,19.27
2023-04-21T12:57:18.285Z,19.90
2023-04-21T12:58:18.560Z,20.53
2023-04-21T12:59:18.142Z,20.82
2023-04-21T13:02:48.038Z,20.83
2023-04-21T13:03:43.838Z,21.21
2023-04-21T13:04:43.627Z,21.44
2023-04-21T13:05:45.347Z,21.24
2023-04-21T13:06:44.491Z,21.12
2023-04-21T13:07:43.409Z,21.53
2023-04-21T13:08:44.465Z,21.95
2023-04-21T13:09:43.276Z,22.28
2023-04-21T13:10:43.214Z,21.67
2023-04-21T13:11:43.139Z,21.84
2023-04-21T13:13:30.671Z,22.07
2023-04-21T13:14:33.322Z,21.76
2023-04-21T13:15:30.428Z,21.44
2023-04-21T13:16:31.929Z,22.05
2023-04-21T13:18:30.256Z,22.07
2023-04-21T13:19:30.612Z,22.15
2023-04-21T13:20:30.164Z,22.07
2023-04-21T13:21:30.343Z,22.05
2023-04-21T13:22:29.987Z,22.34
2023-04-21T13:23:29.912Z,22.47
2023-04-21T13:24:30.149Z,22.35
2023-04-21T13:25:29.820Z,22.34
2023-04-21T13:26:30.938Z,22.02
2023-04-21T13:27:29.657Z,22.12
2023-04-21T13:28:29.593Z,22.22
2023-04-21T13:29:32.392Z,22.17
2023-04-21T13:30:29.468Z,22.12
2023-04-21T13:31:29.606Z,22.28
2023-04-21T13:33:12.071Z,21.30
2023-04-21T13:34:11.807Z,21.44
2023-04-21T13:35:11.730Z,21.85
2023-04-21T13:36:13.118Z,22.46
2023-04-21T13:37:11.579Z,22.65
2023-04-21T13:38:11.535Z,23.11
2023-04-21T13:39:11.501Z,23.40
2023-04-21T13:40:53.881Z,23.35
2023-04-21T13:41:54.408Z,23.08
2023-04-21T13:42:53.752Z,22.83
2023-04-21T13:43:53.703Z,21.92
2023-04-21T13:44:53.632Z,21.84
2023-04-21T13:45:53.616Z,22.08
2023-04-21T13:46:53.536Z,21.98
2023-04-21T13:47:53.469Z,21.23